TimeCST,TemperatureF,Dew PointF,Humidity,Sea Level PressureIn,VisibilityMPH,Wind Direction,Wind SpeedMPH,Gust SpeedMPH,PrecipitationIn,Events,Conditions,WindDirDegrees,DateUTC
12:53 AM,43.0,36.0,76,30.19,10.0,South,6.9,-,N/A,,Clear,170,2012-11-09 06:53:00
1:53 AM,44.1,37.9,79,30.19,10.0,SSE,5.8,-,N/A,,Clear,160,2012-11-09 07:53:00
2:53 AM,46.9,39.0,74,30.19,10.0,South,5.8,-,N/A,,Clear,170,2012-11-09 08:53:00
3:53 AM,45.0,37.9,76,30.20,10.0,SSE,4.6,-,N/A,,Clear,150,2012-11-09 09:53:00
4:53 AM,45.0,39.0,80,30.21,10.0,South,8.1,-,N/A,,Clear,170,2012-11-09 10:53:00
5:53 AM,43.0,37.9,82,30.23,10.0,SE,3.5,-,N/A,,Clear,130,2012-11-09 11:53:00
6:53 AM,43.0,39.0,86,30.25,10.0,SSE,4.6,-,N/A,,Clear,150,2012-11-09 12:53:00
7:53 AM,50.0,42.1,74,30.27,10.0,South,5.8,-,N/A,,Clear,170,2012-11-09 13:53:00
8:53 AM,55.9,44.1,64,30.27,10.0,South,10.4,-,N/A,,Clear,180,2012-11-09 14:53:00
9:53 AM,62.1,43.0,50,30.27,10.0,South,15.0,-,N/A,,Clear,190,2012-11-09 15:53:00
10:53 AM,64.9,44.1,47,30.25,10.0,South,12.7,-,N/A,,Clear,190,2012-11-09 16:53:00
11:53 AM,69.1,43.0,39,30.22,10.0,South,10.4,17.3,N/A,,Clear,190,2012-11-09 17:53:00
12:53 PM,70.0,42.1,36,30.19,10.0,South,10.4,-,N/A,,Clear,170,2012-11-09 18:53:00
1:53 PM,73.0,41.0,31,30.16,10.0,South,10.4,17.3,N/A,,Clear,170,2012-11-09 19:53:00
2:53 PM,72.0,39.9,31,30.15,10.0,SE,11.5,-,N/A,,Clear,140,2012-11-09 20:53:00
3:53 PM,72.0,39.9,31,30.15,10.0,South,11.5,-,N/A,,Clear,170,2012-11-09 21:53:00
4:53 PM,66.9,39.0,36,30.14,10.0,SSE,9.2,-,N/A,,Clear,150,2012-11-09 22:53:00
5:53 PM,63.0,39.0,41,30.15,10.0,SE,10.4,-,N/A,,Clear,140,2012-11-09 23:53:00
6:53 PM,63.0,41.0,45,30.15,10.0,SSE,10.4,-,N/A,,Clear,160,2012-11-10 00:53:00
7:53 PM,61.0,42.1,50,30.16,10.0,SSE,10.4,-,N/A,,Clear,160,2012-11-10 01:53:00
8:53 PM,60.1,44.1,55,30.16,10.0,South,9.2,-,N/A,,Clear,170,2012-11-10 02:53:00
9:53 PM,57.0,45.0,64,30.17,10.0,South,9.2,-,N/A,,Clear,170,2012-11-10 03:53:00
10:53 PM,55.4,46.4,72,30.15,10.0,South,9.2,-,N/A,,Clear,170,2012-11-10 04:53:00
11:53 PM,55.9,48.0,75,30.17,10.0,SSE,8.1,-,N/A,,Clear,160,2012-11-10 05:53:00